Thunder radar more information blitzortung!


Radar de pluja more information rain snow radar


Visita la nostra xarxa de llocs de meteo:

Template documentation
and downloads

And another site



No particular awareness of the weather is required.    There are no Weather-warnings

Pagina Historial Weather Underground text

Diari Resum Agost 31, 2017 Unitats:  Mètric    Imperial   Tant
« Previous Dia
SegĂźent Dia »
Diari Setmana Mensual Anual Personalitzada
  Maxima: Minima: Media:
Temperatura: 22.8 °C 18.2 °C 20.8 °C
Punt de rosada: 18.5 °C 15.3 °C 17.1 °C
Humitat: 88 % 73 % 80 %
Wind Speed: 20.4 km/h 0.0 km/h 6.1 km/h
RĂ fegues de vent: 20.4 km/h - -
Vent:- - ESE
Pression baro: 1018.8 hPa 1012.8 hPa -
Precipitacions: 5.3 mm    
Historical Graphs
 
 
Dades de taula per Agost 31, 2017
Temps Temperatura Punt de rosada Pression baro Vent Wind Speed RĂ fegues de vent Humitat Rainfall Rate (Hourly)
00:00 20.7 °C 17.1 °C 1013.8 hPa SSW 1.6 km/h 3.2 km/h 80 % 0.0 mm
00:03 21.3 °C 16.9 °C 1012.8 hPa SW 1.9 km/h   76 % 0.0 mm
00:08 21.3 °C 16.9 °C 1012.8 hPa Calm     76 % 0.0 mm
00:10 20.5 °C 16.9 °C 1013.8 hPa Calm     80 % 0.0 mm
00:20 20.5 °C 16.9 °C 1012.8 hPa Calm     80 % 0.0 mm
00:30 20.6 °C 17.0 °C 1013.8 hPa Calm   1.6 km/h 80 % 0.0 mm
00:40 20.6 °C 17.0 °C 1013.8 hPa Calm   3.2 km/h 80 % 0.0 mm
00:50 20.6 °C 17.0 °C 1013.8 hPa Calm   1.6 km/h 80 % 0.0 mm
01:00 20.6 °C 17.0 °C 1013.8 hPa Calm     80 % 0.0 mm
01:10 20.6 °C 17.2 °C 1013.8 hPa Calm     81 % 0.0 mm
01:20 20.5 °C 17.1 °C 1013.8 hPa WSW 1.6 km/h 3.2 km/h 81 % 0.0 mm
01:30 20.5 °C 17.1 °C 1012.8 hPa West 1.6 km/h 1.6 km/h 81 % 0.0 mm
01:40 20.4 °C 17.1 °C 1012.8 hPa Calm   1.6 km/h 81 % 0.0 mm
01:50 20.3 °C 16.9 °C 1012.8 hPa Calm   1.6 km/h 81 % 0.0 mm
02:00 20.2 °C 17.0 °C 1013.8 hPa WSW 1.6 km/h 3.2 km/h 82 % 0.0 mm
02:10 19.9 °C 16.9 °C 1013.8 hPa SW 1.6 km/h 3.2 km/h 83 % 0.0 mm
02:20 19.9 °C 17.1 °C 1013.8 hPa Calm   1.6 km/h 84 % 0.0 mm
02:30 20.0 °C 16.8 °C 1013.8 hPa SW 3.2 km/h 4.8 km/h 82 % 0.0 mm
02:40 19.9 °C 17.1 °C 1013.8 hPa Calm   4.8 km/h 84 % 0.0 mm
02:50 20.0 °C 17.4 °C 1013.8 hPa WNW 1.6 km/h 1.6 km/h 85 % 0.0 mm
03:00 20.0 °C 17.4 °C 1013.8 hPa Calm   1.6 km/h 85 % 0.0 mm
03:10 19.9 °C 17.3 °C 1013.8 hPa NNE 4.8 km/h 4.8 km/h 85 % 0.0 mm
03:20 19.9 °C 17.3 °C 1013.8 hPa NE 3.2 km/h 6.4 km/h 85 % 0.0 mm
03:30 19.9 °C 17.3 °C 1013.8 hPa NE 1.6 km/h 4.8 km/h 85 % 0.0 mm
03:40 19.9 °C 17.3 °C 1013.8 hPa NNE 4.8 km/h 6.4 km/h 85 % 0.0 mm
08:41 19.9 °C 17.7 °C 1014.8 hPa WSW 7.4 km/h 7.4 km/h 87 % 0.0 mm
08:42 19.9 °C 17.7 °C 1014.8 hPa WSW 3.7 km/h 3.7 km/h 87 % 0.0 mm
08:45 20.0 °C 17.8 °C 1014.8 hPa WSW 1.9 km/h   87 % 0.0 mm
08:50 20.0 °C 17.9 °C 1014.8 hPa Calm     88 % 0.0 mm
08:55 20.1 °C 18.1 °C 1014.8 hPa ENE 5.6 km/h 5.6 km/h 88 % 0.0 mm
09:00 20.0 °C 17.9 °C 1014.8 hPa East 3.7 km/h 3.7 km/h 88 % 0.0 mm
09:05 20.0 °C 17.9 °C 1014.8 hPa ENE 4.2 km/h 4.2 km/h 88 % 0.0 mm
09:06 20.0 °C 17.8 °C 1014.8 hPa ENE 3.7 km/h 3.7 km/h 87 % 0.0 mm
09:11 20.2 °C 17.9 °C 1014.8 hPa East 1.9 km/h 2.3 km/h 87 % 0.0 mm
09:16 20.2 °C 17.9 °C 1014.8 hPa ENE 5.6 km/h 5.6 km/h 87 % 0.0 mm
09:21 20.1 °C 17.7 °C 1014.8 hPa NNE 7.4 km/h 7.4 km/h 86 % 0.0 mm
09:26 20.2 °C 17.8 °C 1014.8 hPa NE 3.7 km/h 3.7 km/h 86 % 0.0 mm
09:31 20.4 °C 18.2 °C 1014.8 hPa North 3.7 km/h 3.7 km/h 87 % 0.0 mm
09:36 20.4 °C 18.2 °C 1014.8 hPa WNW 3.7 km/h 3.7 km/h 87 % 0.0 mm
09:41 20.4 °C 18.2 °C 1015.8 hPa WNW 1.9 km/h   87 % 0.0 mm
09:46 20.4 °C 18.2 °C 1015.8 hPa NE 3.2 km/h 3.2 km/h 87 % 0.0 mm
09:51 20.4 °C 18.0 °C 1015.8 hPa Calm     86 % 0.0 mm
09:56 20.5 °C 18.1 °C 1015.8 hPa Calm     86 % 0.0 mm
10:01 20.4 °C 18.0 °C 1015.8 hPa NE 1.9 km/h 1.9 km/h 86 % 0.0 mm
10:06 20.5 °C 18.1 °C 1015.8 hPa Calm     86 % 0.0 mm
10:11 20.6 °C 18.3 °C 1015.8 hPa WSW 3.7 km/h 3.7 km/h 87 % 0.0 mm
10:16 20.6 °C 18.3 °C 1015.8 hPa SW 3.7 km/h 3.7 km/h 87 % 0.0 mm
10:21 20.5 °C 18.1 °C 1015.8 hPa SW 3.7 km/h 3.7 km/h 86 % 0.0 mm
10:26 20.5 °C 18.3 °C 1016.8 hPa SSW 3.7 km/h 3.7 km/h 87 % 0.0 mm
10:31 20.6 °C 18.3 °C 1016.8 hPa SSW 1.9 km/h   87 % 0.0 mm
10:36 20.6 °C 18.3 °C 1016.8 hPa West 1.9 km/h 1.9 km/h 87 % 0.0 mm
10:41 20.6 °C 18.3 °C 1016.8 hPa WSW 1.4 km/h   87 % 0.0 mm
10:46 20.6 °C 18.2 °C 1016.8 hPa Calm     86 % 0.0 mm
10:51 20.7 °C 18.3 °C 1016.8 hPa Calm     86 % 0.0 mm
10:56 20.8 °C 18.4 °C 1015.8 hPa NE 3.7 km/h 3.7 km/h 86 % 0.0 mm
11:01 20.9 °C 18.4 °C 1015.8 hPa NNE 5.3 km/h 5.3 km/h 86 % 0.0 mm
11:06 21.0 °C 18.4 °C 1015.8 hPa NNE 4.2 km/h   85 % 0.0 mm
11:11 20.8 °C 18.0 °C 1015.8 hPa ENE 1.9 km/h   84 % 0.0 mm
11:16 20.8 °C 17.8 °C 1015.8 hPa NNE 3.9 km/h 3.9 km/h 83 % 0.0 mm
11:21 20.8 °C 17.6 °C 1015.8 hPa Calm     82 % 0.0 mm
11:26 21.0 °C 17.8 °C 1015.8 hPa Calm     82 % 0.0 mm
11:31 21.0 °C 17.8 °C 1015.8 hPa WNW 1.9 km/h   82 % 0.0 mm
11:36 21.1 °C 17.9 °C 1015.8 hPa WNW 2.3 km/h   82 % 0.0 mm
11:41 21.2 °C 18.0 °C 1015.8 hPa West 3.7 km/h 3.7 km/h 82 % 0.0 mm
11:46 21.3 °C 18.1 °C 1015.8 hPa Calm     82 % 0.0 mm
11:51 21.4 °C 18.0 °C 1015.8 hPa SW 5.6 km/h 5.6 km/h 81 % 0.0 mm
11:56 21.4 °C 18.0 °C 1015.8 hPa West 3.2 km/h 3.2 km/h 81 % 0.0 mm
12:01 21.5 °C 17.9 °C 1015.8 hPa SW 1.9 km/h 1.9 km/h 80 % 0.0 mm
12:06 21.6 °C 18.0 °C 1015.8 hPa SW 2.3 km/h 2.3 km/h 80 % 0.0 mm
12:11 21.7 °C 17.9 °C 1015.8 hPa South 2.6 km/h   79 % 0.0 mm
12:16 21.7 °C 17.9 °C 1015.8 hPa Calm     79 % 0.0 mm
12:21 21.7 °C 17.7 °C 1015.8 hPa Calm     78 % 0.0 mm
12:26 21.8 °C 17.8 °C 1016.8 hPa Calm     78 % 0.0 mm
12:31 22.0 °C 18.2 °C 1016.8 hPa SW 2.6 km/h   79 % 0.0 mm
12:36 21.9 °C 18.3 °C 1016.8 hPa West 1.9 km/h 1.9 km/h 80 % 0.0 mm
12:41 21.8 °C 18.2 °C 1016.8 hPa WNW 3.7 km/h 3.7 km/h 80 % 0.0 mm
12:46 21.7 °C 18.1 °C 1016.8 hPa NNE 3.9 km/h 3.9 km/h 80 % 0.0 mm
12:51 21.7 °C 18.1 °C 1016.8 hPa WSW 3.7 km/h 3.7 km/h 80 % 0.0 mm
12:56 21.9 °C 18.3 °C 1016.8 hPa ENE 2.3 km/h   80 % 0.0 mm
13:01 22.0 °C 18.4 °C 1016.8 hPa WNW 1.9 km/h   80 % 0.0 mm
13:06 22.1 °C 18.5 °C 1016.8 hPa SW 3.7 km/h   80 % 0.0 mm
13:11 22.1 °C 18.1 °C 1016.8 hPa SSW 3.7 km/h 3.7 km/h 78 % 0.0 mm
13:16 22.1 °C 17.9 °C 1016.8 hPa NNE 1.9 km/h 1.9 km/h 77 % 0.0 mm
13:21 22.1 °C 17.9 °C 1016.8 hPa Calm     77 % 0.0 mm
13:26 22.3 °C 18.1 °C 1015.8 hPa ENE 3.7 km/h 3.7 km/h 77 % 0.0 mm
13:31 22.3 °C 17.9 °C 1015.8 hPa ENE 3.7 km/h 3.7 km/h 76 % 0.0 mm
13:36 22.5 °C 18.1 °C 1015.8 hPa ENE 5.6 km/h 5.6 km/h 76 % 0.0 mm
13:41 22.8 °C 18.3 °C 1015.8 hPa ENE 5.6 km/h 5.6 km/h 76 % 0.0 mm
13:46 22.8 °C 18.1 °C 1015.8 hPa ESE 7.4 km/h 7.4 km/h 75 % 0.0 mm
13:51 22.8 °C 18.1 °C 1015.8 hPa SE 7.4 km/h 7.4 km/h 75 % 0.0 mm
13:56 22.7 °C 18.1 °C 1015.8 hPa ESE 9.3 km/h 9.3 km/h 75 % 0.0 mm
14:01 22.7 °C 18.1 °C 1015.8 hPa ESE 9.3 km/h 9.3 km/h 75 % 0.0 mm
14:06 22.7 °C 18.2 °C 1015.8 hPa East 11.1 km/h 11.1 km/h 76 % 0.0 mm
14:11 22.6 °C 18.2 °C 1016.8 hPa ESE 18.5 km/h 18.5 km/h 76 % 0.0 mm
14:16 22.5 °C 18.3 °C 1016.8 hPa ESE 14.8 km/h 14.8 km/h 77 % 0.0 mm
14:21 22.5 °C 18.3 °C 1016.8 hPa ESE 14.8 km/h 14.8 km/h 77 % 0.0 mm
14:26 22.1 °C 17.9 °C 1017.8 hPa SE 14.8 km/h 14.8 km/h 77 % 0.0 mm
14:31 21.8 °C 17.6 °C 1017.8 hPa ESE 16.7 km/h 16.7 km/h 77 % 0.0 mm
14:36 21.4 °C 17.2 °C 1017.8 hPa East 14.8 km/h 14.8 km/h 77 % 0.0 mm
14:41 21.4 °C 17.2 °C 1017.8 hPa NNE 9.3 km/h 9.3 km/h 77 % 0.0 mm
14:46 21.2 °C 17.0 °C 1017.8 hPa ESE 13.0 km/h 13.0 km/h 77 % 0.0 mm
14:51 20.8 °C 17.0 °C 1017.8 hPa East 7.4 km/h 7.4 km/h 79 % 1.0 mm
14:56 20.5 °C 16.9 °C 1017.8 hPa ENE 5.6 km/h 5.6 km/h 80 % 1.0 mm
15:01 20.6 °C 17.2 °C 1017.8 hPa ESE 7.4 km/h 7.4 km/h 81 % 1.0 mm
15:06 20.6 °C 17.2 °C 1017.8 hPa East 3.7 km/h 3.7 km/h 81 % 1.0 mm
15:11 20.7 °C 17.3 °C 1017.8 hPa North 5.6 km/h 5.6 km/h 81 % 2.3 mm
15:16 20.8 °C 17.6 °C 1017.8 hPa Calm     82 % 3.3 mm
15:21 20.5 °C 17.3 °C 1017.8 hPa NE 3.7 km/h 3.7 km/h 82 % 3.3 mm
15:26 20.5 °C 17.3 °C 1016.8 hPa NE 3.7 km/h 3.7 km/h 82 % 5.3 mm
15:31 20.9 °C 17.9 °C 1016.8 hPa ENE 9.3 km/h 9.3 km/h 83 % 5.3 mm
15:33 21.0 °C 18.0 °C 1016.8 hPa NNE 9.3 km/h 9.3 km/h 83 % 5.3 mm
15:38 21.1 °C 17.9 °C 1016.8 hPa ESE 13.0 km/h 13.0 km/h 82 % 5.3 mm
15:43 21.4 °C 18.0 °C 1017.8 hPa NNE 5.6 km/h 5.6 km/h 81 % 5.3 mm
15:48 21.5 °C 17.9 °C 1017.8 hPa ENE 9.3 km/h 9.3 km/h 80 % 4.3 mm
15:53 21.7 °C 18.1 °C 1017.8 hPa ENE 11.1 km/h 11.1 km/h 80 % 4.3 mm
15:58 21.8 °C 18.2 °C 1017.8 hPa ESE 9.3 km/h 9.3 km/h 80 % 4.3 mm
16:03 22.0 °C 17.8 °C 1017.8 hPa East 14.8 km/h 14.8 km/h 77 % 4.3 mm
16:08 22.2 °C 17.8 °C 1017.8 hPa East 18.5 km/h 18.5 km/h 76 % 3.0 mm
16:13 22.1 °C 17.2 °C 1017.8 hPa ESE 11.1 km/h 11.1 km/h 74 % 3.0 mm
16:18 22.0 °C 17.2 °C 1017.8 hPa SSW 16.7 km/h 16.7 km/h 74 % 2.0 mm
16:23 21.8 °C 17.2 °C 1017.8 hPa East 16.7 km/h 16.7 km/h 75 % 1.0 mm
16:28 21.8 °C 17.2 °C 1015.8 hPa NE 16.7 km/h 16.7 km/h 75 % 0.0 mm
16:33 21.9 °C 17.3 °C 1015.8 hPa ESE 14.8 km/h 14.8 km/h 75 % 0.0 mm
16:38 22.3 °C 17.4 °C 1015.8 hPa East 14.8 km/h 14.8 km/h 74 % 0.0 mm
16:43 22.6 °C 17.7 °C 1015.8 hPa ESE 11.1 km/h 11.1 km/h 74 % 0.0 mm
16:48 22.7 °C 17.6 °C 1015.8 hPa ESE 14.8 km/h 14.8 km/h 73 % 0.0 mm
16:53 22.5 °C 17.4 °C 1015.8 hPa East 14.8 km/h 14.8 km/h 73 % 0.0 mm
16:58 22.3 °C 17.2 °C 1015.8 hPa ESE 14.8 km/h 14.8 km/h 73 % 0.0 mm
17:03 22.3 °C 17.2 °C 1015.8 hPa ESE 9.3 km/h 9.5 km/h 73 % 0.0 mm
17:08 22.3 °C 17.2 °C 1015.8 hPa ESE 14.8 km/h 14.8 km/h 73 % 0.0 mm
17:13 22.2 °C 17.1 °C 1015.8 hPa ESE 13.0 km/h 13.0 km/h 73 % 0.0 mm
17:18 22.3 °C 17.4 °C 1015.8 hPa SE 16.7 km/h 16.7 km/h 74 % 0.0 mm
17:23 22.1 °C 17.2 °C 1016.8 hPa SE 16.7 km/h 16.7 km/h 74 % 0.0 mm
17:28 21.9 °C 17.3 °C 1016.8 hPa ESE 14.8 km/h 14.8 km/h 75 % 0.0 mm
17:33 21.7 °C 17.1 °C 1016.8 hPa ESE 16.7 km/h 16.7 km/h 75 % 0.0 mm
17:38 21.5 °C 17.1 °C 1017.8 hPa ESE 18.5 km/h 18.5 km/h 76 % 0.0 mm
17:43 21.4 °C 17.0 °C 1017.8 hPa SE 13.0 km/h 13.0 km/h 76 % 0.0 mm
17:48 21.3 °C 16.9 °C 1017.8 hPa East 11.4 km/h 11.4 km/h 76 % 0.0 mm
17:53 21.1 °C 16.7 °C 1016.8 hPa SE 13.7 km/h 13.7 km/h 76 % 0.0 mm
17:58 21.0 °C 16.8 °C 1016.8 hPa ENE 13.0 km/h 13.0 km/h 77 % 0.0 mm
18:03 20.9 °C 16.9 °C 1016.8 hPa East 20.4 km/h 20.4 km/h 78 % 0.0 mm
18:08 20.9 °C 16.9 °C 1016.8 hPa ESE 16.7 km/h 16.7 km/h 78 % 0.0 mm
18:13 20.8 °C 16.8 °C 1016.8 hPa East 14.8 km/h 14.8 km/h 78 % 0.0 mm
18:18 20.9 °C 16.9 °C 1016.8 hPa ESE 17.2 km/h 17.2 km/h 78 % 0.0 mm
18:23 20.9 °C 16.9 °C 1017.8 hPa East 9.3 km/h 9.3 km/h 78 % 0.0 mm
18:28 20.9 °C 16.9 °C 1017.8 hPa East 11.1 km/h 11.1 km/h 78 % 0.0 mm
18:33 20.8 °C 16.8 °C 1017.8 hPa ESE 9.3 km/h 9.3 km/h 78 % 0.0 mm
18:38 20.8 °C 16.8 °C 1017.8 hPa East 13.0 km/h 13.0 km/h 78 % 0.0 mm
18:43 20.8 °C 16.8 °C 1017.8 hPa ENE 11.1 km/h 11.1 km/h 78 % 0.0 mm
18:48 20.8 °C 16.8 °C 1017.8 hPa SE 9.3 km/h 9.3 km/h 78 % 0.0 mm
18:53 20.8 °C 16.8 °C 1017.8 hPa ESE 9.3 km/h 9.3 km/h 78 % 0.0 mm
18:58 20.8 °C 16.8 °C 1017.8 hPa SE 11.9 km/h 11.9 km/h 78 % 0.0 mm
19:03 20.7 °C 16.7 °C 1017.8 hPa East 11.1 km/h 11.1 km/h 78 % 0.0 mm
19:08 20.6 °C 16.6 °C 1017.8 hPa East 13.0 km/h 13.0 km/h 78 % 0.0 mm
19:13 20.7 °C 16.7 °C 1017.8 hPa East 11.1 km/h 11.1 km/h 78 % 0.0 mm
19:18 20.6 °C 16.6 °C 1017.8 hPa NE 14.8 km/h 14.8 km/h 78 % 0.0 mm
19:23 20.6 °C 16.8 °C 1017.8 hPa East 12.6 km/h 12.6 km/h 79 % 0.0 mm
19:28 20.5 °C 16.7 °C 1017.8 hPa SE 11.4 km/h 11.4 km/h 79 % 0.0 mm
19:33 20.5 °C 16.7 °C 1017.8 hPa NE 9.7 km/h 9.7 km/h 79 % 0.0 mm
19:38 20.5 °C 16.6 °C 1017.8 hPa NNE 12.6 km/h 12.6 km/h 78 % 0.0 mm
19:43 20.4 °C 16.4 °C 1017.8 hPa ENE 13.0 km/h 13.0 km/h 78 % 0.0 mm
19:48 20.4 °C 16.4 °C 1017.8 hPa SE 11.1 km/h 11.1 km/h 78 % 0.0 mm
19:53 20.4 °C 16.4 °C 1017.8 hPa ENE 13.0 km/h 13.0 km/h 78 % 0.0 mm
19:58 20.3 °C 16.3 °C 1017.8 hPa ESE 13.0 km/h 13.0 km/h 78 % 0.0 mm
20:03 20.3 °C 16.3 °C 1017.8 hPa ESE 11.1 km/h 11.1 km/h 78 % 0.0 mm
20:08 20.3 °C 16.3 °C 1017.8 hPa East 9.3 km/h 9.3 km/h 78 % 0.0 mm
20:13 20.3 °C 16.3 °C 1017.8 hPa NE 9.3 km/h 9.3 km/h 78 % 0.0 mm
20:18 20.2 °C 16.2 °C 1017.8 hPa ESE 8.7 km/h 8.7 km/h 78 % 0.0 mm
20:20 19.4 °C 15.7 °C 1017.8 hPa North 1.6 km/h 1.6 km/h 79 % 0.0 mm
20:23 20.2 °C 16.2 °C 1017.8 hPa East 6.9 km/h 6.9 km/h 78 % 0.0 mm
20:28 20.2 °C 16.2 °C 1017.8 hPa ESE 7.4 km/h 7.4 km/h 78 % 0.0 mm
20:29 20.2 °C 16.2 °C 1017.8 hPa SE 5.6 km/h 5.6 km/h 78 % 0.0 mm
20:30 19.2 °C 15.7 °C 1017.8 hPa Calm   3.2 km/h 80 % 0.0 mm
20:34 20.2 °C 16.2 °C 1017.8 hPa SE 9.5 km/h 9.5 km/h 78 % 0.0 mm
20:39 20.2 °C 16.2 °C 1017.8 hPa ENE 7.4 km/h 7.4 km/h 78 % 0.0 mm
20:40 19.0 °C 15.4 °C 1017.8 hPa Calm     80 % 0.0 mm
20:44 20.2 °C 16.2 °C 1017.8 hPa SSE 7.9 km/h 7.9 km/h 78 % 0.0 mm
20:49 20.2 °C 16.2 °C 1017.8 hPa ESE 7.4 km/h 7.4 km/h 78 % 0.0 mm
20:50 18.9 °C 15.8 °C 1017.8 hPa Calm     82 % 0.0 mm
20:54 20.2 °C 16.1 °C 1017.8 hPa ESE 7.4 km/h 7.4 km/h 77 % 0.0 mm
20:59 20.2 °C 16.1 °C 1017.8 hPa East 13.0 km/h 13.0 km/h 77 % 0.0 mm
21:00 18.7 °C 15.6 °C 1017.8 hPa Calm     82 % 0.0 mm
21:04 20.2 °C 16.1 °C 1017.8 hPa SE 13.0 km/h 13.0 km/h 77 % 0.0 mm
21:09 20.3 °C 16.1 °C 1017.8 hPa ENE 9.3 km/h 9.3 km/h 77 % 0.0 mm
21:10 18.6 °C 15.4 °C 1017.8 hPa Calm     82 % 0.0 mm
21:14 20.3 °C 16.1 °C 1017.8 hPa ESE 7.4 km/h 7.4 km/h 77 % 0.0 mm
21:19 20.3 °C 16.1 °C 1017.8 hPa East 5.6 km/h 5.6 km/h 77 % 0.0 mm
21:20 18.5 °C 15.6 °C 1017.8 hPa Calm     83 % 0.0 mm
21:24 20.3 °C 16.1 °C 1017.8 hPa East 7.9 km/h 7.9 km/h 77 % 0.0 mm
21:29 20.3 °C 16.1 °C 1017.8 hPa NE 7.4 km/h 7.4 km/h 77 % 0.0 mm
21:30 18.4 °C 15.4 °C 1017.8 hPa Calm     83 % 0.0 mm
21:34 20.2 °C 16.1 °C 1017.8 hPa East 3.7 km/h 3.7 km/h 77 % 0.0 mm
21:39 20.2 °C 16.1 °C 1017.8 hPa NNE 2.3 km/h 2.3 km/h 77 % 0.0 mm
21:40 18.2 °C 15.3 °C 1017.8 hPa NNE 1.6 km/h 3.2 km/h 83 % 0.0 mm
21:44 20.2 °C 16.1 °C 1017.8 hPa NE 3.7 km/h 3.7 km/h 77 % 0.0 mm
21:45 20.2 °C 16.1 °C 1017.8 hPa NE 3.7 km/h 3.7 km/h 77 % 0.0 mm
21:50 20.2 °C 16.1 °C 1017.8 hPa Calm     77 % 0.0 mm
21:55 20.2 °C 15.8 °C 1017.8 hPa ENE 1.9 km/h 2.3 km/h 76 % 0.0 mm
22:00 20.2 °C 15.8 °C 1017.8 hPa NE 3.7 km/h 3.7 km/h 76 % 0.0 mm
22:05 20.2 °C 15.8 °C 1017.8 hPa East 3.7 km/h 3.7 km/h 76 % 0.0 mm
22:10 20.2 °C 16.1 °C 1017.8 hPa NE 5.6 km/h 5.6 km/h 77 % 0.0 mm
22:15 20.2 °C 16.1 °C 1017.8 hPa NNE 5.6 km/h 5.6 km/h 77 % 0.0 mm
22:20 20.1 °C 15.7 °C 1017.8 hPa NE 3.7 km/h 3.7 km/h 76 % 0.0 mm
22:25 20.2 °C 15.8 °C 1018.8 hPa NE 1.9 km/h 1.9 km/h 76 % 0.0 mm
22:30 20.2 °C 15.8 °C 1018.8 hPa NNE 3.7 km/h 3.7 km/h 76 % 0.0 mm
22:35 20.2 °C 15.8 °C 1018.8 hPa East 2.6 km/h 2.6 km/h 76 % 0.0 mm
22:40 20.2 °C 15.8 °C 1018.8 hPa East 3.7 km/h 3.7 km/h 76 % 0.0 mm
22:45 20.2 °C 15.8 °C 1018.8 hPa ESE 1.9 km/h 1.9 km/h 76 % 0.0 mm
22:50 20.2 °C 16.1 °C 1018.8 hPa WSW 1.9 km/h 1.9 km/h 77 % 0.0 mm
22:55 20.1 °C 15.9 °C 1018.8 hPa WSW 2.6 km/h 2.6 km/h 77 % 0.0 mm
23:00 20.1 °C 15.9 °C 1018.8 hPa WSW 2.3 km/h 2.3 km/h 77 % 0.0 mm
23:05 20.0 °C 15.8 °C 1018.8 hPa Calm     77 % 0.0 mm
23:10 20.0 °C 16.1 °C 1017.8 hPa Calm     78 % 0.0 mm
23:15 20.0 °C 16.1 °C 1017.8 hPa Calm     78 % 0.0 mm
23:20 20.0 °C 16.1 °C 1017.8 hPa NNE 3.7 km/h 3.7 km/h 78 % 0.0 mm
23:25 19.9 °C 15.9 °C 1017.8 hPa NNE 1.9 km/h 1.9 km/h 78 % 0.0 mm
23:30 19.9 °C 15.9 °C 1017.8 hPa North 1.9 km/h   78 % 0.0 mm
23:35 19.8 °C 15.8 °C 1017.8 hPa NNE 1.9 km/h   78 % 0.0 mm
23:40 19.8 °C 15.8 °C 1017.8 hPa NNE 3.7 km/h 3.7 km/h 78 % 0.0 mm
23:45 19.8 °C 15.8 °C 1017.8 hPa NNE 2.3 km/h 2.3 km/h 78 % 0.0 mm
23:50 19.8 °C 15.8 °C 1017.8 hPa Calm     78 % 0.0 mm
23:55 19.7 °C 15.8 °C 1017.8 hPa NNE 1.9 km/h   78 % 0.0 mm
Meteo Sesrovires
Elogis d' Weather Underground - 3.75 mb

Guio original per  Jim McMurry - jmcmurry@mwt.net Adaptat per a la plantilla per  Wim van der Kuil - Leuven-Template.eu

Trobareu la nostra informacio del temps tambe a:

Weather Underground

AWEKAS